Time;durP1;ratioP1;P1;durP2;ratioP2;P2;SDS_P1;SDS_P2;PMS_P1;PMS_P2;Temp;Humidity;BMP_temperature;BMP_pressure;BME280_temperature;BME280_humidity;BME280_pressure;Samples;Min_cycle;Max_cycle;Signal;HPM_P1;HPM_P2
2023/06/09 00:00:07;;;;;;;9.83;6.27;;;;;;;-145.69;nan;52097.84;5074738;28;20659;-82
2023/06/09 00:02:33;;;;;;;10.53;6.20;;;;;;;-145.69;nan;52056.25;5073764;28;20199;-83
2023/06/09 00:05:00;;;;;;;10.50;6.30;;;;;;;-145.69;nan;52093.88;5074917;28;20260;-84
2023/06/09 00:07:29;;;;;;;10.70;6.03;;;;;;;-145.69;nan;52091.88;5074932;28;20573;-83
2023/06/09 00:09:56;;;;;;;9.07;6.30;;;;;;;-145.69;nan;52103.78;5074422;28;20222;-86
2023/06/09 00:12:23;;;;;;;11.30;6.00;;;;;;;-145.69;nan;52078.03;5074890;28;20641;-84
2023/06/09 00:14:49;;;;;;;7.33;5.77;;;;;;;-145.69;nan;52115.66;5074596;28;20212;-83
2023/06/09 00:17:16;;;;;;;10.90;6.57;;;;;;;-145.69;nan;52064.16;5074513;28;20191;-84
2023/06/09 00:19:42;;;;;;;11.37;6.70;;;;;;;-145.69;nan;52089.91;5074598;28;20198;-83
2023/06/09 00:22:13;;;;;;;8.60;6.33;;;;;;;-145.69;nan;52115.66;5074511;28;20210;-83
2023/06/09 00:24:41;;;;;;;9.70;6.57;;;;;;;-145.69;nan;52107.72;5074850;28;20226;-84
2023/06/09 00:27:08;;;;;;;11.47;6.67;;;;;;;-145.69;nan;52085.94;5074598;28;20229;-83
2023/06/09 00:29:35;;;;;;;8.97;6.40;;;;;;;-145.69;nan;52087.94;5074384;28;20697;-83
2023/06/09 00:32:02;;;;;;;9.73;6.53;;;;;;;-145.69;nan;52099.81;5074550;28;20202;-82
2023/06/09 00:34:28;;;;;;;10.57;6.10;;;;;;;-145.69;nan;52083.97;5073819;28;20195;-82
2023/06/09 00:36:55;;;;;;;9.93;6.70;;;;;;;-145.69;nan;52095.84;5074019;28;20199;-83
2023/06/09 00:39:22;;;;;;;10.13;7.00;;;;;;;-145.69;nan;52103.78;5073550;28;20240;-82
2023/06/09 00:41:50;;;;;;;14.53;7.60;;;;;;;-145.69;nan;52123.56;5073835;28;20203;-82
2023/06/09 00:44:17;;;;;;;10.17;6.80;;;;;;;-145.69;nan;52091.88;5073784;28;20293;-82
2023/06/09 00:46:43;;;;;;;10.93;6.97;;;;;;;-145.69;nan;52083.97;5074056;28;20206;-82
2023/06/09 00:49:10;;;;;;;9.13;6.30;;;;;;;-145.69;nan;52107.72;5073595;28;20242;-83
2023/06/09 00:51:37;;;;;;;10.80;7.00;;;;;;;-145.69;nan;52072.09;5073952;28;20203;-83
2023/06/09 00:54:05;;;;;;;9.30;6.47;;;;;;;-145.69;nan;52103.78;5072583;28;20203;-83
2023/06/09 00:56:32;;;;;;;9.70;6.93;;;;;;;-145.69;nan;52091.88;5073600;28;20209;-83
2023/06/09 00:59:01;;;;;;;11.80;7.40;;;;;;;-145.69;nan;52074.06;5073336;28;20209;-82
2023/06/09 01:01:28;;;;;;;10.70;6.80;;;;;;;-145.69;nan;52062.19;5073512;28;20629;-83
2023/06/09 01:03:55;;;;;;;14.73;7.90;;;;;;;-145.69;nan;52115.66;5073518;28;20511;-82
2023/06/09 01:06:30;;;;;;;10.53;7.30;;;;;;;-145.69;nan;52111.69;5073456;28;20808;-82
2023/06/09 01:12:23;;;;;;;13.50;8.10;;;;;;;-145.69;nan;52097.84;5086428;28;20196;-83
2023/06/09 01:15:04;;;;;;;12.83;7.73;;;;;;;-145.69;nan;52089.91;5093738;28;20206;-83
2023/06/09 01:17:32;;;;;;;11.43;7.50;;;;;;;-145.69;nan;52080.00;5093819;28;20210;-83
2023/06/09 01:20:05;;;;;;;16.43;8.13;;;;;;;-145.69;nan;52103.78;5086940;28;20697;-82
2023/06/09 01:22:42;;;;;;;11.80;7.47;;;;;;;-145.69;nan;52107.72;5073149;28;20298;-84
2023/06/09 01:25:27;;;;;;;10.37;7.00;;;;;;;-145.69;nan;52076.03;5073422;28;20194;-81
2023/06/09 01:27:57;;;;;;;11.30;7.90;;;;;;;-145.69;nan;52107.72;5073480;28;20673;-83
2023/06/09 01:30:29;;;;;;;11.90;7.23;;;;;;;-145.69;nan;52099.81;5073046;28;20222;-84
2023/06/09 01:32:57;;;;;;;13.47;7.63;;;;;;;-145.69;nan;52072.09;5073617;28;20678;-83
2023/06/09 01:35:25;;;;;;;11.90;7.17;;;;;;;-145.69;nan;52083.97;5072533;28;20203;-83
2023/06/09 01:37:52;;;;;;;10.37;6.53;;;;;;;-145.69;nan;52101.78;5069847;28;20264;-83
2023/06/09 01:40:21;;;;;;;13.80;7.73;;;;;;;-145.69;nan;52082.00;5073487;28;20202;-83
2023/06/09 01:42:47;;;;;;;13.40;8.30;;;;;;;-145.69;nan;52072.09;5073159;28;20274;-83
2023/06/09 01:45:14;;;;;;;12.93;7.53;;;;;;;-145.69;nan;52109.72;5073443;28;20209;-82
2023/06/09 01:47:40;;;;;;;13.77;7.33;;;;;;;-145.69;nan;52097.84;5072986;28;20261;-82
2023/06/09 01:50:14;;;;;;;15.77;7.57;;;;;;;-145.69;nan;52093.88;5060543;28;20222;-82
2023/06/09 01:52:46;;;;;;;11.90;7.63;;;;;;;-145.69;nan;52139.41;5073223;28;20202;-84
2023/06/09 01:55:18;;;;;;;10.93;7.00;;;;;;;-145.69;nan;52115.66;5073548;28;20214;-84
2023/06/09 01:57:53;;;;;;;11.03;6.90;;;;;;;-145.69;nan;52105.75;5071636;28;20207;-82
2023/06/09 02:00:24;;;;;;;11.80;7.47;;;;;;;-145.69;nan;52105.75;5072944;28;20189;-82
2023/06/09 02:02:54;;;;;;;14.43;7.70;;;;;;;-145.69;nan;52131.50;5072564;28;20210;-82
2023/06/09 02:05:22;;;;;;;9.37;7.00;;;;;;;-145.69;nan;52131.50;5073275;28;20207;-83
2023/06/09 02:07:51;;;;;;;12.13;7.60;;;;;;;-145.69;nan;52099.81;5073095;28;20743;-83
2023/06/09 02:10:23;;;;;;;10.47;7.10;;;;;;;-145.69;nan;52070.09;5073004;28;20219;-83
2023/06/09 02:12:51;;;;;;;10.90;7.53;;;;;;;-145.69;nan;52101.78;5073010;28;20198;-83
2023/06/09 02:15:18;;;;;;;11.87;7.33;;;;;;;-145.69;nan;52091.88;5073039;28;20203;-83
2023/06/09 02:17:45;;;;;;;13.07;7.20;;;;;;;-145.69;nan;52080.00;5072933;28;20202;-84
2023/06/09 02:20:13;;;;;;;11.03;7.23;;;;;;;-145.69;nan;52121.59;5072946;28;20195;-82
2023/06/09 02:22:40;;;;;;;12.60;7.40;;;;;;;-145.69;nan;52095.84;5072845;28;20203;-83
2023/06/09 02:25:08;;;;;;;9.90;7.27;;;;;;;-145.69;nan;52091.88;5073539;28;20218;-83
2023/06/09 02:27:35;;;;;;;10.93;6.93;;;;;;;-145.69;nan;52135.47;5076874;28;20596;-83
2023/06/09 02:30:04;;;;;;;10.37;6.63;;;;;;;-145.69;nan;52093.88;5076511;28;20704;-83
2023/06/09 02:32:30;;;;;;;15.03;6.90;;;;;;;-145.69;nan;52091.88;5076975;28;20205;-83
2023/06/09 02:34:56;;;;;;;12.73;6.27;;;;;;;-145.69;nan;52095.84;5076430;28;20577;-83
2023/06/09 02:37:23;;;;;;;9.30;6.33;;;;;;;-145.69;nan;52105.75;5075855;28;20203;-82
2023/06/09 02:39:49;;;;;;;10.47;6.80;;;;;;;-145.69;nan;52139.41;5076347;28;20665;-82
2023/06/09 02:42:16;;;;;;;8.77;6.23;;;;;;;-145.69;nan;52091.88;5076121;28;20210;-83
2023/06/09 02:44:42;;;;;;;10.27;6.57;;;;;;;-145.69;nan;52093.88;5076120;28;20198;-82
2023/06/09 02:47:10;;;;;;;10.83;6.50;;;;;;;-145.69;nan;52087.94;5075746;28;20235;-83
2023/06/09 02:49:37;;;;;;;10.73;7.00;;;;;;;-145.69;nan;52121.59;5075935;28;20708;-82
2023/06/09 02:52:04;;;;;;;11.57;7.30;;;;;;;-145.69;nan;52074.06;5075590;28;20202;-83
2023/06/09 02:54:31;;;;;;;11.23;6.83;;;;;;;-145.69;nan;52133.47;5076420;28;20238;-82
2023/06/09 02:56:57;;;;;;;10.07;6.80;;;;;;;-145.69;nan;52121.59;5075777;28;20199;-82
2023/06/09 02:59:24;;;;;;;8.73;6.53;;;;;;;-145.69;nan;52127.53;5076326;28;20219;-82
2023/06/09 03:01:50;;;;;;;10.67;7.23;;;;;;;-145.69;nan;52135.47;5074826;28;20190;-82
2023/06/09 03:04:18;;;;;;;9.97;6.50;;;;;;;-145.69;nan;52103.78;5076204;28;20195;-83
2023/06/09 03:06:48;;;;;;;13.83;7.33;;;;;;;-145.69;nan;52113.66;5076144;28;20199;-83
2023/06/09 03:09:15;;;;;;;9.93;7.53;;;;;;;-145.69;nan;52139.41;5075985;28;20209;-84
2023/06/09 03:11:41;;;;;;;13.00;7.97;;;;;;;-145.69;nan;52097.84;5076064;28;20690;-83
2023/06/09 03:14:08;;;;;;;14.20;7.90;;;;;;;-145.69;nan;52131.50;5075901;28;20226;-83
2023/06/09 03:16:34;;;;;;;14.10;6.97;;;;;;;-145.69;nan;52131.50;5075939;28;20199;-83
2023/06/09 03:19:01;;;;;;;11.43;7.03;;;;;;;-145.69;nan;52143.38;5075641;28;20206;-82
2023/06/09 03:21:29;;;;;;;9.77;7.00;;;;;;;-145.69;nan;52147.34;5074963;28;20604;-82
2023/06/09 03:23:56;;;;;;;11.60;8.13;;;;;;;-145.69;nan;52119.63;5075232;28;20202;-82
2023/06/09 03:26:23;;;;;;;13.23;7.97;;;;;;;-145.69;nan;52119.63;5075745;28;20203;-83
2023/06/09 03:28:50;;;;;;;12.57;7.70;;;;;;;-145.69;nan;52111.69;5075709;28;20289;-82
2023/06/09 03:31:17;;;;;;;12.73;8.17;;;;;;;-145.69;nan;52099.81;5075214;28;20223;-83
2023/06/09 03:33:43;;;;;;;14.73;8.30;;;;;;;-145.69;nan;52127.53;5075387;28;20252;-82
2023/06/09 03:36:10;;;;;;;12.73;8.00;;;;;;;-145.69;nan;52125.56;5074986;28;20601;-82
2023/06/09 03:38:38;;;;;;;16.20;8.87;;;;;;;-145.69;nan;52147.34;5075226;28;20199;-82
2023/06/09 03:41:05;;;;;;;16.10;8.47;;;;;;;-145.69;nan;52119.63;5074430;28;20210;-82
2023/06/09 03:43:31;;;;;;;13.70;8.47;;;;;;;-145.69;nan;52147.34;5074962;28;20195;-82
2023/06/09 03:45:58;;;;;;;14.17;8.67;;;;;;;-145.69;nan;52167.13;5075122;28;20213;-83
2023/06/09 03:48:24;;;;;;;13.13;8.43;;;;;;;-145.69;nan;52121.59;5074602;28;20256;-81
2023/06/09 03:50:51;;;;;;;12.23;8.57;;;;;;;-145.69;nan;52153.28;5074106;28;20232;-82
2023/06/09 03:53:17;;;;;;;13.93;9.07;;;;;;;-145.69;nan;52139.41;5074755;28;20696;-81
2023/06/09 03:55:45;;;;;;;14.00;9.13;;;;;;;-145.69;nan;52107.72;5075340;28;20210;-82
2023/06/09 03:58:12;;;;;;;13.37;9.03;;;;;;;-145.69;nan;52131.50;5074964;28;20203;-82
2023/06/09 04:00:38;;;;;;;12.77;9.33;;;;;;;-145.69;nan;52159.22;5074387;28;20191;-82
2023/06/09 04:03:06;;;;;;;12.50;8.80;;;;;;;-145.69;nan;52135.47;5074769;28;20205;-82
2023/06/09 04:05:33;;;;;;;15.97;9.20;;;;;;;-145.69;nan;52105.75;5074497;28;20201;-82
2023/06/09 04:07:59;;;;;;;13.80;8.07;;;;;;;-145.69;nan;52139.41;5074183;28;20202;-82
2023/06/09 04:10:26;;;;;;;14.47;8.00;;;;;;;-145.69;nan;52139.41;5074282;28;20210;-82
2023/06/09 04:12:53;;;;;;;14.37;7.77;;;;;;;-145.69;nan;52127.53;5074340;28;20218;-84
2023/06/09 04:15:22;;;;;;;11.93;8.63;;;;;;;-145.69;nan;52119.63;5074392;28;20202;-78
2023/06/09 04:17:48;;;;;;;11.57;8.63;;;;;;;-145.69;nan;52137.44;5073528;28;20195;-77
2023/06/09 04:20:14;;;;;;;13.20;9.03;;;;;;;-145.69;nan;52143.38;5073795;28;20229;-77
2023/06/09 04:22:47;;;;;;;12.67;8.40;;;;;;;-145.69;nan;52101.78;5074140;28;20208;-77
2023/06/09 04:25:14;;;;;;;10.93;8.00;;;;;;;-145.69;nan;52121.59;5073466;28;20226;-77
2023/06/09 04:27:41;;;;;;;12.27;7.60;;;;;;;-145.69;nan;52139.41;5074012;28;20293;-78
2023/06/09 04:30:10;;;;;;;10.67;7.47;;;;;;;-145.69;nan;52145.34;5073280;28;20223;-77
2023/06/09 04:32:36;;;;;;;11.40;7.80;;;;;;;-145.69;nan;52097.84;5073305;28;20205;-78
2023/06/09 04:35:03;;;;;;;12.10;8.53;;;;;;;-145.69;nan;52131.50;5073321;28;20653;-77
2023/06/09 04:37:30;;;;;;;11.57;8.13;;;;;;;-145.69;nan;52131.50;5074023;28;20202;-77
2023/06/09 04:39:58;;;;;;;11.17;7.87;;;;;;;-145.69;nan;52123.56;5073480;28;20202;-77
2023/06/09 04:42:24;;;;;;;13.33;7.83;;;;;;;-145.69;nan;52137.44;5071916;28;20215;-77
2023/06/09 04:44:53;;;;;;;11.60;8.10;;;;;;;-145.69;nan;52115.66;5073568;28;20203;-77
2023/06/09 04:47:24;;;;;;;12.23;8.43;;;;;;;-145.69;nan;52085.94;5072659;28;20235;-77
2023/06/09 04:49:53;;;;;;;14.67;8.30;;;;;;;-145.69;nan;52111.69;5073345;28;20669;-77
2023/06/09 04:52:20;;;;;;;12.37;7.90;;;;;;;-145.69;nan;52127.53;5072541;28;20206;-77
2023/06/09 04:54:49;;;;;;;10.33;7.53;;;;;;;-145.69;nan;52123.56;5073330;28;20194;-78
2023/06/09 04:57:17;;;;;;;12.13;7.27;;;;;;;-145.69;nan;52101.78;5072916;28;20224;-77
2023/06/09 04:59:45;;;;;;;10.37;6.53;;;;;;;-145.69;nan;52113.66;5072786;28;20203;-77
2023/06/09 05:02:11;;;;;;;10.93;6.10;;;;;;;-145.69;nan;52119.63;5072388;28;20199;-77
2023/06/09 05:04:40;;;;;;;17.23;6.67;;;;;;;-145.69;nan;52123.56;5073477;28;20199;-77
2023/06/09 05:07:06;;;;;;;8.37;5.97;;;;;;;-145.69;nan;52117.63;5073185;28;20195;-77
2023/06/09 05:09:32;;;;;;;10.05;6.60;;;;;;;-145.69;nan;52093.88;5073211;28;20203;-77
2023/06/09 05:11:59;;;;;;;9.37;6.23;;;;;;;-145.69;nan;52115.66;5072233;28;20257;-77
2023/06/09 05:14:25;;;;;;;8.10;5.32;;;;;;;-145.69;nan;52087.94;5072886;28;20203;-76
2023/06/09 05:16:53;;;;;;;9.05;5.28;;;;;;;-145.69;nan;52072.09;5072970;28;20233;-77
2023/06/09 05:19:21;;;;;;;6.35;4.80;;;;;;;-145.69;nan;52078.03;5073017;28;20237;-77
2023/06/09 05:21:48;;;;;;;6.35;4.47;;;;;;;-145.69;nan;52056.25;5072595;28;20205;-77
2023/06/09 05:24:15;;;;;;;9.05;4.38;;;;;;;-145.69;nan;52097.84;5072872;28;20282;-78
2023/06/09 05:26:42;;;;;;;10.02;4.50;;;;;;;-145.69;nan;52099.81;5072907;28;20206;-78
2023/06/09 05:29:08;;;;;;;5.95;4.43;;;;;;;-145.69;nan;52074.06;5072558;28;20194;-77
2023/06/09 05:31:35;;;;;;;7.68;4.40;;;;;;;-145.69;nan;52074.06;5072178;28;20249;-77
2023/06/09 05:34:01;;;;;;;6.57;4.10;;;;;;;-145.69;nan;52076.03;5072775;28;20202;-77
2023/06/09 05:36:29;;;;;;;6.45;4.25;;;;;;;-145.69;nan;52054.25;5072449;28;20256;-78
2023/06/09 05:38:57;;;;;;;5.88;3.83;;;;;;;-145.69;nan;52024.56;5072726;28;20217;-77
2023/06/09 05:41:23;;;;;;;5.90;3.83;;;;;;;-145.69;nan;51996.84;5072027;28;20252;-77
2023/06/09 05:43:50;;;;;;;5.80;3.88;;;;;;;-145.69;nan;52044.38;5069836;28;20217;-77
2023/06/09 05:46:16;;;;;;;8.52;3.72;;;;;;;-145.69;nan;52004.75;5071876;28;20198;-78
2023/06/09 05:48:44;;;;;;;4.80;3.78;;;;;;;-145.69;nan;51965.16;5072460;28;20714;-78
2023/06/09 05:51:12;;;;;;;3.97;3.47;;;;;;;-145.69;nan;51994.88;5072250;28;20222;-77
2023/06/09 05:53:39;;;;;;;6.50;3.83;;;;;;;-145.69;nan;51998.81;5071783;28;20562;-78
2023/06/09 05:56:06;;;;;;;8.98;4.45;;;;;;;-145.69;nan;52020.59;5072008;28;20202;-77
2023/06/09 05:58:34;;;;;;;5.97;3.97;;;;;;;-145.69;nan;51977.03;5072891;28;20584;-77
2023/06/09 06:01:03;;;;;;;7.15;4.50;;;;;;;-145.69;nan;52000.81;5074829;28;20336;-78
2023/06/09 06:03:31;;;;;;;5.90;3.97;;;;;;;-145.69;nan;51990.91;5076777;28;20234;-77
2023/06/09 06:05:58;;;;;;;5.18;3.80;;;;;;;-145.69;nan;52016.66;5076256;28;20195;-77
2023/06/09 06:08:24;;;;;;;6.82;4.20;;;;;;;-145.69;nan;52000.81;5076007;28;20195;-79
2023/06/09 06:10:51;;;;;;;7.35;4.28;;;;;;;-145.69;nan;52024.56;5075785;28;20767;-81
2023/06/09 06:13:19;;;;;;;8.50;4.53;;;;;;;-145.69;nan;51998.81;5076306;28;20277;-80
2023/06/09 06:15:46;;;;;;;7.57;4.22;;;;;;;-145.69;nan;52022.59;5076089;28;20195;-81
2023/06/09 06:18:12;;;;;;;7.38;4.50;;;;;;;-145.69;nan;51996.84;5076376;28;20290;-80
2023/06/09 06:20:39;;;;;;;5.63;4.30;;;;;;;-145.69;nan;52020.59;5076180;28;20191;-78
2023/06/09 06:23:07;;;;;;;6.00;4.75;;;;;;;-145.69;nan;51994.88;5075749;28;20290;-82
2023/06/09 06:25:36;;;;;;;6.15;4.47;;;;;;;-145.69;nan;52004.75;5076038;28;20255;-80
2023/06/09 06:28:02;;;;;;;5.05;3.63;;;;;;;-145.69;nan;52016.66;5076254;28;20530;-81
2023/06/09 06:30:30;;;;;;;5.80;4.30;;;;;;;-145.69;nan;51984.97;5075599;28;20190;-80
2023/06/09 06:32:59;;;;;;;8.48;4.65;;;;;;;-145.69;nan;51992.88;5075996;28;20226;-81
2023/06/09 06:35:26;;;;;;;7.15;4.25;;;;;;;-145.69;nan;52016.66;5075864;28;20206;-81
2023/06/09 06:37:53;;;;;;;5.18;4.20;;;;;;;-145.69;nan;52014.66;5075374;28;20290;-80
2023/06/09 06:40:19;;;;;;;6.28;4.60;;;;;;;-145.69;nan;51992.88;5075351;28;20550;-80
2023/06/09 06:42:46;;;;;;;7.60;4.65;;;;;;;-145.69;nan;52000.81;5075946;28;20202;-81
2023/06/09 06:45:12;;;;;;;8.10;4.60;;;;;;;-145.69;nan;52016.66;5076100;28;20225;-81
2023/06/09 06:47:43;;;;;;;8.73;4.90;;;;;;;-145.69;nan;51973.06;5074834;28;20226;-80
2023/06/09 06:50:10;;;;;;;7.25;4.78;;;;;;;-145.69;nan;51992.88;5075380;28;20195;-80
2023/06/09 06:52:37;;;;;;;6.38;3.80;;;;;;;-145.69;nan;52012.69;5075606;28;20237;-79
2023/06/09 06:55:05;;;;;;;6.82;4.60;;;;;;;-145.69;nan;52018.63;5075661;28;20609;-79
2023/06/09 06:57:31;;;;;;;6.60;4.35;;;;;;;-145.69;nan;52032.47;5075450;28;20568;-80
2023/06/09 06:59:58;;;;;;;4.47;3.55;;;;;;;-145.69;nan;52004.75;5075401;28;20562;-80
2023/06/09 07:02:24;;;;;;;5.80;3.90;;;;;;;-145.69;nan;51996.84;5075553;28;20697;-81
2023/06/09 07:04:52;;;;;;;7.93;4.70;;;;;;;-145.69;nan;51963.19;5075216;28;20202;-80
2023/06/09 07:07:18;;;;;;;9.30;4.45;;;;;;;-145.69;nan;51973.06;5074574;28;20207;-80
2023/06/09 07:09:45;;;;;;;8.88;3.97;;;;;;;-145.69;nan;51994.88;5075278;28;20665;-81
2023/06/09 07:12:11;;;;;;;5.35;3.92;;;;;;;-145.69;nan;51961.19;5074347;28;20268;-79
2023/06/09 07:14:38;;;;;;;7.38;4.03;;;;;;;-145.69;nan;51979.03;5075445;28;20203;-80
2023/06/09 07:17:05;;;;;;;5.88;3.83;;;;;;;-145.69;nan;51959.22;5074993;28;20206;-80
2023/06/09 07:19:31;;;;;;;9.60;3.95;;;;;;;-145.69;nan;51945.34;5075138;28;20202;-81
2023/06/09 07:21:59;;;;;;;5.13;3.60;;;;;;;-145.69;nan;51947.34;5074551;28;20198;-80
2023/06/09 07:24:26;;;;;;;6.28;4.25;;;;;;;-145.69;nan;51963.19;5075257;28;20199;-79
2023/06/09 07:26:53;;;;;;;5.00;3.75;;;;;;;-145.69;nan;51969.13;5074934;28;20203;-80
2023/06/09 07:29:19;;;;;;;5.65;3.40;;;;;;;-145.69;nan;51971.09;5074860;28;20270;-81
2023/06/09 07:31:46;;;;;;;6.65;3.72;;;;;;;-145.69;nan;51945.34;5074868;28;20233;-79
2023/06/09 07:34:13;;;;;;;6.80;3.38;;;;;;;-145.69;nan;51967.13;5074731;28;20206;-80
2023/06/09 07:36:40;;;;;;;7.80;3.53;;;;;;;-145.69;nan;51969.13;5075361;28;20203;-81
2023/06/09 07:39:08;;;;;;;5.57;3.25;;;;;;;-145.69;nan;51959.22;5074072;28;20529;-80
2023/06/09 07:41:35;;;;;;;6.07;3.38;;;;;;;-145.69;nan;51981.00;5075324;28;20207;-81
2023/06/09 07:44:01;;;;;;;6.40;3.20;;;;;;;-145.69;nan;51937.44;5075332;28;20203;-81
2023/06/09 07:46:30;;;;;;;10.02;3.65;;;;;;;-145.69;nan;51937.44;5064205;28;20207;-80
2023/06/09 07:48:56;;;;;;;5.95;3.53;;;;;;;-145.69;nan;51925.56;5054612;28;20259;-83
2023/06/09 07:51:23;;;;;;;4.95;3.35;;;;;;;-145.69;nan;51965.16;5071263;28;20272;-80
2023/06/09 07:53:49;;;;;;;5.28;3.50;;;;;;;-145.69;nan;51941.41;5074439;28;20202;-81
2023/06/09 07:56:17;;;;;;;6.72;3.40;;;;;;;-145.69;nan;51951.28;5074107;28;20218;-81
2023/06/09 07:58:44;;;;;;;5.93;3.20;;;;;;;-145.69;nan;51971.09;5074688;28;20597;-80
2023/06/09 08:01:10;;;;;;;9.13;3.80;;;;;;;-145.69;nan;51927.53;5074415;28;20207;-83
2023/06/09 08:03:37;;;;;;;5.20;3.65;;;;;;;-145.69;nan;51949.31;5074340;28;20241;-81
2023/06/09 08:06:05;;;;;;;6.85;3.42;;;;;;;-145.69;nan;51943.38;5073603;28;20194;-80
2023/06/09 08:08:31;;;;;;;6.00;3.53;;;;;;;-145.69;nan;51901.78;5074187;28;20203;-80
2023/06/09 08:10:58;;;;;;;7.05;3.20;;;;;;;-145.69;nan;51909.72;5074555;28;20210;-81
2023/06/09 08:13:26;;;;;;;6.13;3.45;;;;;;;-145.69;nan;51921.59;5073856;28;20198;-81
2023/06/09 08:15:52;;;;;;;6.82;3.17;;;;;;;-145.69;nan;51905.75;5074292;28;20657;-79
2023/06/09 08:18:19;;;;;;;6.53;3.65;;;;;;;-145.69;nan;51895.84;5073105;28;20214;-80
2023/06/09 08:20:45;;;;;;;4.00;3.00;;;;;;;-145.69;nan;51917.63;5074279;28;20205;-81
2023/06/09 08:23:12;;;;;;;4.45;2.92;;;;;;;-145.69;nan;51921.59;5073199;28;20213;-80
2023/06/09 08:25:38;;;;;;;4.28;3.20;;;;;;;-145.69;nan;51893.88;5074129;28;20199;-81
2023/06/09 08:28:05;;;;;;;5.28;2.63;;;;;;;-145.69;nan;51921.59;5068909;28;20207;-79
2023/06/09 08:30:33;;;;;;;3.67;2.83;;;;;;;-145.69;nan;51909.72;5073641;28;20715;-80
2023/06/09 08:32:59;;;;;;;5.35;3.17;;;;;;;-145.69;nan;51897.84;5073442;28;20230;-79
2023/06/09 08:35:26;;;;;;;4.13;2.70;;;;;;;-145.69;nan;51925.56;5073772;28;20197;-79
2023/06/09 08:37:53;;;;;;;4.30;3.13;;;;;;;-145.69;nan;51931.50;5073537;28;20235;-78
2023/06/09 08:40:19;;;;;;;6.78;2.53;;;;;;;-145.69;nan;51915.66;5073685;28;20203;-78
2023/06/09 08:42:49;;;;;;;5.63;2.95;;;;;;;-145.69;nan;51901.78;5073246;28;20195;-78
2023/06/09 08:45:19;;;;;;;6.72;2.90;;;;;;;-145.69;nan;51911.69;5073922;28;20268;-79
2023/06/09 08:47:49;;;;;;;4.43;2.70;;;;;;;-145.69;nan;51915.66;5073186;28;20332;-79
2023/06/09 08:50:18;;;;;;;2.78;2.40;;;;;;;-145.69;nan;51911.69;5072799;28;20199;-79
2023/06/09 08:52:45;;;;;;;5.95;2.95;;;;;;;-145.69;nan;51887.94;5073151;28;20226;-79
2023/06/09 08:55:14;;;;;;;3.63;2.70;;;;;;;-145.69;nan;51866.16;5073418;28;20198;-79
2023/06/09 08:57:41;;;;;;;4.07;2.63;;;;;;;-145.69;nan;51901.78;5072726;28;20281;-79
2023/06/09 09:00:11;;;;;;;3.35;2.55;;;;;;;-145.69;nan;51866.16;5073112;28;20203;-79
2023/06/09 09:02:37;;;;;;;3.15;2.53;;;;;;;-145.69;nan;51885.94;5073181;28;20191;-79
2023/06/09 09:05:06;;;;;;;4.43;2.75;;;;;;;-145.69;nan;51880.00;5073326;28;20203;-78
2023/06/09 09:07:32;;;;;;;5.47;2.70;;;;;;;-145.69;nan;51880.00;5072662;28;20202;-77
2023/06/09 09:09:59;;;;;;;3.40;2.70;;;;;;;-145.69;nan;51901.78;5072621;28;20645;-79
2023/06/09 09:12:25;;;;;;;3.45;2.70;;;;;;;-145.69;nan;51882.00;5072553;28;20722;-79
2023/06/09 09:14:52;;;;;;;5.45;2.85;;;;;;;-145.69;nan;51885.94;5073020;28;20715;-78
2023/06/09 09:17:20;;;;;;;3.80;2.40;;;;;;;-145.69;nan;51907.72;5072413;28;20674;-77
2023/06/09 09:19:48;;;;;;;3.10;2.45;;;;;;;-145.69;nan;51885.94;5072693;28;20198;-78
2023/06/09 09:22:16;;;;;;;7.35;3.00;;;;;;;-145.69;nan;51882.00;5072907;28;20203;-78
2023/06/09 09:24:45;;;;;;;4.25;3.00;;;;;;;-145.69;nan;51895.84;5072780;28;20245;-78
2023/06/09 09:27:17;;;;;;;6.32;2.95;;;;;;;-145.69;nan;51889.91;5072303;28;20190;-78
2023/06/09 09:29:44;;;;;;;4.25;2.38;;;;;;;-145.69;nan;51866.16;5072127;28;20298;-78
2023/06/09 09:32:11;;;;;;;4.45;3.03;;;;;;;-145.69;nan;51893.88;5072969;28;20234;-78
2023/06/09 09:34:40;;;;;;;4.57;2.80;;;;;;;-145.69;nan;51883.97;5072124;28;20207;-78
2023/06/09 09:37:11;;;;;;;4.78;2.80;;;;;;;-145.69;nan;51866.16;5072711;28;20290;-78
2023/06/09 09:39:48;;;;;;;4.35;2.80;;;;;;;-145.69;nan;51885.94;5072529;28;20244;-79
2023/06/09 09:42:15;;;;;;;4.43;3.17;;;;;;;-145.69;nan;51854.28;5073052;28;20194;-78
2023/06/09 09:44:42;;;;;;;4.13;2.95;;;;;;;-145.69;nan;51862.19;5062084;28;20203;-78
2023/06/09 09:47:12;;;;;;;3.20;2.60;;;;;;;-145.69;nan;51897.84;5052327;28;20690;-78
2023/06/09 09:49:50;;;;;;;4.28;3.20;;;;;;;-145.69;nan;51882.00;5060158;28;20676;-76
2023/06/09 09:52:22;;;;;;;5.78;3.15;;;;;;;-145.69;nan;51866.16;5072819;28;20293;-77
2023/06/09 09:54:51;;;;;;;5.18;3.00;;;;;;;-145.69;nan;51866.16;5070404;28;20592;-78
2023/06/09 09:57:19;;;;;;;4.30;3.05;;;;;;;-145.69;nan;51856.25;5072404;28;20199;-78
2023/06/09 09:59:47;;;;;;;3.70;2.70;;;;;;;-145.69;nan;51885.94;5072475;28;20202;-78
2023/06/09 10:02:21;;;;;;;8.00;3.17;;;;;;;-145.69;nan;51901.78;5072703;28;20260;-78
2023/06/09 10:04:49;;;;;;;5.55;2.70;;;;;;;-145.69;nan;51876.06;5071116;28;20567;-78
2023/06/09 10:07:19;;;;;;;3.53;2.67;;;;;;;-145.69;nan;51895.84;5072266;28;20207;-78
2023/06/09 10:09:46;;;;;;;4.35;3.13;;;;;;;-145.69;nan;51889.91;5052481;28;20329;-78
2023/06/09 10:12:14;;;;;;;6.95;3.00;;;;;;;-145.69;nan;51891.88;5052180;28;20230;-78
2023/06/09 10:14:41;;;;;;;6.50;2.72;;;;;;;-145.69;nan;51903.78;5069106;28;20256;-78
2023/06/09 10:17:08;;;;;;;3.78;2.85;;;;;;;-145.69;nan;51852.28;5072281;28;20205;-79
2023/06/09 10:19:35;;;;;;;4.90;2.78;;;;;;;-145.69;nan;51883.97;5071734;28;20662;-78
2023/06/09 10:22:03;;;;;;;4.85;2.47;;;;;;;-145.69;nan;51856.25;5072573;28;20572;-78
2023/06/09 10:24:32;;;;;;;4.07;2.88;;;;;;;-145.69;nan;51889.91;5071691;28;20195;-78
2023/06/09 10:26:59;;;;;;;5.60;3.00;;;;;;;-145.69;nan;51866.16;5071174;28;20191;-78
2023/06/09 10:29:28;;;;;;;3.60;2.70;;;;;;;-145.69;nan;51885.94;5072365;28;20298;-78
2023/06/09 10:31:57;;;;;;;5.45;2.70;;;;;;;-145.69;nan;51840.41;5072363;28;20684;-79
2023/06/09 10:34:25;;;;;;;5.82;2.90;;;;;;;-145.69;nan;51854.28;5072195;28;20199;-78
2023/06/09 10:36:54;;;;;;;4.82;2.90;;;;;;;-145.69;nan;51866.16;5071776;28;20213;-78
2023/06/09 10:39:22;;;;;;;4.25;3.10;;;;;;;-145.69;nan;51862.19;5072303;28;20206;-78
2023/06/09 10:41:56;;;;;;;5.13;3.00;;;;;;;-145.69;nan;51830.50;5072017;28;20201;-79
2023/06/09 10:44:35;;;;;;;5.38;2.95;;;;;;;-145.69;nan;51828.53;5072030;28;20290;-79
2023/06/09 10:47:01;;;;;;;4.60;2.90;;;;;;;-145.69;nan;51828.53;5054224;28;20264;-79
2023/06/09 10:49:42;;;;;;;4.32;3.10;;;;;;;-145.69;nan;51848.34;5055627;28;20291;-78
2023/06/09 10:52:30;;;;;;;3.53;3.03;;;;;;;-145.69;nan;51848.34;5055440;28;20237;-78
2023/06/09 10:55:11;;;;;;;2.90;2.45;;;;;;;-145.69;nan;51812.69;5070845;28;20219;-78
2023/06/09 10:57:39;;;;;;;5.10;3.28;;;;;;;-145.69;nan;51828.53;5075657;28;20684;-78
2023/06/09 11:00:12;;;;;;;6.78;3.17;;;;;;;-145.69;nan;51822.59;5075644;28;20233;-79
2023/06/09 11:02:40;;;;;;;10.13;2.95;;;;;;;-145.69;nan;51816.66;5074856;28;20214;-78
2023/06/09 11:05:07;;;;;;;4.82;2.88;;;;;;;-145.69;nan;51844.38;5074636;28;20191;-78
2023/06/09 11:07:45;;;;;;;5.70;2.80;;;;;;;-145.69;nan;51826.56;5075340;28;20203;-78
2023/06/09 11:10:26;;;;;;;4.35;2.92;;;;;;;-145.69;nan;51806.75;5075590;28;20202;-78
2023/06/09 11:12:53;;;;;;;4.05;2.50;;;;;;;-145.69;nan;51806.75;5074816;28;20218;-78
2023/06/09 11:15:21;;;;;;;8.20;3.05;;;;;;;-145.69;nan;51814.66;5075234;28;20703;-79
2023/06/09 11:17:49;;;;;;;4.10;2.50;;;;;;;-145.69;nan;51802.78;5075310;28;20290;-79
2023/06/09 11:20:17;;;;;;;6.55;2.95;;;;;;;-145.69;nan;51790.91;5073385;28;20237;-78
2023/06/09 11:23:00;;;;;;;3.65;2.50;;;;;;;-145.69;nan;51806.75;5075071;28;20244;-80
2023/06/09 11:25:42;;;;;;;4.25;2.78;;;;;;;-145.69;nan;51783.00;5075151;28;20195;-79
2023/06/09 11:28:19;;;;;;;4.50;2.78;;;;;;;-145.69;nan;51786.94;5074787;28;20205;-79
2023/06/09 11:31:02;;;;;;;4.45;2.90;;;;;;;-145.69;nan;51775.06;5074825;28;20194;-78
2023/06/09 11:33:49;;;;;;;5.40;2.60;;;;;;;-145.69;nan;51784.97;5074877;28;20225;-79
2023/06/09 11:36:32;;;;;;;3.55;2.90;;;;;;;-145.69;nan;51814.66;5074072;28;20206;-79